sensor_id;sensor_type;location;lat;lon;timestamp;P1;durP1;ratioP1;P2;durP2;ratioP2
38162;SDS011;23977;53.078;18.248;2022-08-21T00:02:13;9.98;;;6.05;;
38162;SDS011;23977;53.078;18.248;2022-08-21T00:04:39;10.23;;;6.03;;
38162;SDS011;23977;53.078;18.248;2022-08-21T00:07:05;11.80;;;5.97;;
38162;SDS011;23977;53.078;18.248;2022-08-21T00:09:33;12.77;;;6.35;;
38162;SDS011;23977;53.078;18.248;2022-08-21T00:12:00;9.85;;;5.80;;
38162;SDS011;23977;53.078;18.248;2022-08-21T00:14:26;10.15;;;5.70;;
38162;SDS011;23977;53.078;18.248;2022-08-21T00:16:51;11.68;;;5.72;;
38162;SDS011;23977;53.078;18.248;2022-08-21T00:19:17;10.82;;;5.65;;
38162;SDS011;23977;53.078;18.248;2022-08-21T00:21:43;8.77;;;5.22;;
38162;SDS011;23977;53.078;18.248;2022-08-21T00:24:09;10.60;;;5.60;;
38162;SDS011;23977;53.078;18.248;2022-08-21T00:26:35;10.95;;;5.85;;
38162;SDS011;23977;53.078;18.248;2022-08-21T00:29:01;10.63;;;5.93;;
38162;SDS011;23977;53.078;18.248;2022-08-21T00:31:27;11.40;;;5.82;;
38162;SDS011;23977;53.078;18.248;2022-08-21T00:36:21;10.25;;;5.53;;
38162;SDS011;23977;53.078;18.248;2022-08-21T00:39:14;10.02;;;6.13;;
38162;SDS011;23977;53.078;18.248;2022-08-21T00:41:40;9.80;;;5.45;;
38162;SDS011;23977;53.078;18.248;2022-08-21T00:44:07;10.35;;;5.72;;
38162;SDS011;23977;53.078;18.248;2022-08-21T00:46:34;10.85;;;6.20;;
38162;SDS011;23977;53.078;18.248;2022-08-21T00:49:01;10.35;;;5.93;;
38162;SDS011;23977;53.078;18.248;2022-08-21T00:51:38;10.98;;;6.13;;
38162;SDS011;23977;53.078;18.248;2022-08-21T00:54:05;11.18;;;6.00;;
38162;SDS011;23977;53.078;18.248;2022-08-21T00:56:32;9.82;;;5.25;;
38162;SDS011;23977;53.078;18.248;2022-08-21T00:58:58;9.75;;;5.82;;
38162;SDS011;23977;53.078;18.248;2022-08-21T01:01:25;10.57;;;5.80;;
38162;SDS011;23977;53.078;18.248;2022-08-21T01:03:51;10.48;;;5.35;;
38162;SDS011;23977;53.078;18.248;2022-08-21T01:06:17;11.10;;;6.13;;
38162;SDS011;23977;53.078;18.248;2022-08-21T01:08:43;10.13;;;5.90;;
38162;SDS011;23977;53.078;18.248;2022-08-21T01:11:09;8.77;;;5.45;;
38162;SDS011;23977;53.078;18.248;2022-08-21T01:13:36;8.82;;;5.55;;
38162;SDS011;23977;53.078;18.248;2022-08-21T01:16:02;13.63;;;5.57;;
38162;SDS011;23977;53.078;18.248;2022-08-21T01:18:29;9.80;;;5.60;;
38162;SDS011;23977;53.078;18.248;2022-08-21T01:21:09;11.02;;;5.95;;
38162;SDS011;23977;53.078;18.248;2022-08-21T01:23:37;9.43;;;5.50;;
38162;SDS011;23977;53.078;18.248;2022-08-21T01:26:04;8.50;;;5.57;;
38162;SDS011;23977;53.078;18.248;2022-08-21T01:28:31;10.68;;;5.90;;
38162;SDS011;23977;53.078;18.248;2022-08-21T01:30:58;11.77;;;5.70;;
38162;SDS011;23977;53.078;18.248;2022-08-21T01:33:31;10.95;;;5.63;;
38162;SDS011;23977;53.078;18.248;2022-08-21T01:35:57;10.57;;;6.03;;
38162;SDS011;23977;53.078;18.248;2022-08-21T01:38:23;11.27;;;5.93;;
38162;SDS011;23977;53.078;18.248;2022-08-21T01:40:50;10.07;;;5.90;;
38162;SDS011;23977;53.078;18.248;2022-08-21T01:43:17;9.43;;;5.80;;
38162;SDS011;23977;53.078;18.248;2022-08-21T01:45:43;12.38;;;6.03;;
38162;SDS011;23977;53.078;18.248;2022-08-21T01:48:09;10.73;;;5.60;;
38162;SDS011;23977;53.078;18.248;2022-08-21T01:50:35;9.93;;;5.70;;
38162;SDS011;23977;53.078;18.248;2022-08-21T01:53:01;9.52;;;5.70;;
38162;SDS011;23977;53.078;18.248;2022-08-21T01:55:28;9.70;;;5.32;;
38162;SDS011;23977;53.078;18.248;2022-08-21T01:57:54;8.38;;;5.28;;
38162;SDS011;23977;53.078;18.248;2022-08-21T02:00:20;10.50;;;5.70;;
38162;SDS011;23977;53.078;18.248;2022-08-21T02:02:50;10.32;;;5.80;;
38162;SDS011;23977;53.078;18.248;2022-08-21T02:05:17;10.13;;;5.72;;
38162;SDS011;23977;53.078;18.248;2022-08-21T02:07:45;10.00;;;5.70;;
38162;SDS011;23977;53.078;18.248;2022-08-21T02:10:12;8.65;;;5.55;;
38162;SDS011;23977;53.078;18.248;2022-08-21T02:12:38;11.77;;;6.75;;
38162;SDS011;23977;53.078;18.248;2022-08-21T02:15:04;10.98;;;6.85;;
38162;SDS011;23977;53.078;18.248;2022-08-21T02:20:30;11.55;;;6.53;;
38162;SDS011;23977;53.078;18.248;2022-08-21T02:22:56;12.98;;;7.72;;
38162;SDS011;23977;53.078;18.248;2022-08-21T02:25:23;11.30;;;7.20;;
38162;SDS011;23977;53.078;18.248;2022-08-21T02:27:50;12.57;;;7.07;;
38162;SDS011;23977;53.078;18.248;2022-08-21T02:30:26;12.05;;;7.65;;
38162;SDS011;23977;53.078;18.248;2022-08-21T02:32:53;11.88;;;7.18;;
38162;SDS011;23977;53.078;18.248;2022-08-21T02:35:19;11.07;;;6.72;;
38162;SDS011;23977;53.078;18.248;2022-08-21T02:37:51;10.88;;;6.90;;
38162;SDS011;23977;53.078;18.248;2022-08-21T02:40:18;11.13;;;7.43;;
38162;SDS011;23977;53.078;18.248;2022-08-21T02:42:44;10.15;;;6.53;;
38162;SDS011;23977;53.078;18.248;2022-08-21T02:45:11;13.50;;;7.20;;
38162;SDS011;23977;53.078;18.248;2022-08-21T02:47:52;11.10;;;7.50;;
38162;SDS011;23977;53.078;18.248;2022-08-21T02:50:26;12.25;;;8.18;;
38162;SDS011;23977;53.078;18.248;2022-08-21T02:52:52;12.15;;;8.13;;
38162;SDS011;23977;53.078;18.248;2022-08-21T02:55:20;11.65;;;7.18;;
38162;SDS011;23977;53.078;18.248;2022-08-21T02:57:47;12.57;;;8.00;;
38162;SDS011;23977;53.078;18.248;2022-08-21T03:00:13;12.27;;;8.07;;
38162;SDS011;23977;53.078;18.248;2022-08-21T03:02:40;10.52;;;7.60;;
38162;SDS011;23977;53.078;18.248;2022-08-21T03:05:07;12.32;;;8.10;;
38162;SDS011;23977;53.078;18.248;2022-08-21T03:07:33;13.43;;;8.48;;
38162;SDS011;23977;53.078;18.248;2022-08-21T03:10:02;13.48;;;8.32;;
38162;SDS011;23977;53.078;18.248;2022-08-21T03:12:28;11.52;;;8.60;;
38162;SDS011;23977;53.078;18.248;2022-08-21T03:14:54;12.30;;;7.82;;
38162;SDS011;23977;53.078;18.248;2022-08-21T03:17:20;12.63;;;7.97;;
38162;SDS011;23977;53.078;18.248;2022-08-21T03:19:45;12.82;;;9.43;;
38162;SDS011;23977;53.078;18.248;2022-08-21T03:22:11;15.52;;;9.82;;
38162;SDS011;23977;53.078;18.248;2022-08-21T03:24:37;13.70;;;9.95;;
38162;SDS011;23977;53.078;18.248;2022-08-21T03:27:06;13.70;;;9.15;;
38162;SDS011;23977;53.078;18.248;2022-08-21T03:29:36;16.30;;;10.30;;
38162;SDS011;23977;53.078;18.248;2022-08-21T03:32:02;15.85;;;9.48;;
38162;SDS011;23977;53.078;18.248;2022-08-21T03:34:28;13.27;;;10.02;;
38162;SDS011;23977;53.078;18.248;2022-08-21T03:37:09;16.67;;;9.35;;
38162;SDS011;23977;53.078;18.248;2022-08-21T03:39:37;17.00;;;9.68;;
38162;SDS011;23977;53.078;18.248;2022-08-21T03:42:03;18.23;;;10.55;;
38162;SDS011;23977;53.078;18.248;2022-08-21T03:44:30;14.38;;;10.48;;
38162;SDS011;23977;53.078;18.248;2022-08-21T03:46:56;12.85;;;9.73;;
38162;SDS011;23977;53.078;18.248;2022-08-21T03:49:22;14.73;;;10.73;;
38162;SDS011;23977;53.078;18.248;2022-08-21T03:51:48;13.77;;;10.25;;
38162;SDS011;23977;53.078;18.248;2022-08-21T03:54:14;15.32;;;10.90;;
38162;SDS011;23977;53.078;18.248;2022-08-21T03:56:40;15.50;;;10.93;;
38162;SDS011;23977;53.078;18.248;2022-08-21T03:59:06;15.45;;;11.50;;
38162;SDS011;23977;53.078;18.248;2022-08-21T04:01:32;14.30;;;10.55;;
38162;SDS011;23977;53.078;18.248;2022-08-21T04:03:59;16.23;;;10.55;;
38162;SDS011;23977;53.078;18.248;2022-08-21T04:06:25;13.05;;;9.90;;
38162;SDS011;23977;53.078;18.248;2022-08-21T04:08:52;13.35;;;10.20;;
38162;SDS011;23977;53.078;18.248;2022-08-21T04:11:18;17.60;;;11.38;;
38162;SDS011;23977;53.078;18.248;2022-08-21T04:13:45;13.57;;;9.57;;
38162;SDS011;23977;53.078;18.248;2022-08-21T04:16:12;14.13;;;11.15;;
38162;SDS011;23977;53.078;18.248;2022-08-21T04:18:38;17.25;;;12.13;;
38162;SDS011;23977;53.078;18.248;2022-08-21T04:21:04;17.38;;;13.50;;
38162;SDS011;23977;53.078;18.248;2022-08-21T04:23:30;16.83;;;12.82;;
38162;SDS011;23977;53.078;18.248;2022-08-21T04:25:56;17.52;;;13.25;;
38162;SDS011;23977;53.078;18.248;2022-08-21T04:28:23;16.45;;;12.18;;
38162;SDS011;23977;53.078;18.248;2022-08-21T04:30:52;17.42;;;11.70;;
38162;SDS011;23977;53.078;18.248;2022-08-21T04:33:19;16.40;;;11.23;;
38162;SDS011;23977;53.078;18.248;2022-08-21T04:35:45;14.27;;;10.30;;
38162;SDS011;23977;53.078;18.248;2022-08-21T04:38:11;13.68;;;10.25;;
38162;SDS011;23977;53.078;18.248;2022-08-21T04:40:37;14.30;;;11.52;;
38162;SDS011;23977;53.078;18.248;2022-08-21T04:43:04;16.30;;;11.85;;
38162;SDS011;23977;53.078;18.248;2022-08-21T04:45:32;19.70;;;11.70;;
38162;SDS011;23977;53.078;18.248;2022-08-21T04:48:00;17.27;;;12.52;;
38162;SDS011;23977;53.078;18.248;2022-08-21T04:50:27;18.42;;;12.90;;
38162;SDS011;23977;53.078;18.248;2022-08-21T04:52:55;21.55;;;13.13;;
38162;SDS011;23977;53.078;18.248;2022-08-21T04:55:21;19.92;;;14.38;;
38162;SDS011;23977;53.078;18.248;2022-08-21T04:57:48;18.88;;;14.60;;
38162;SDS011;23977;53.078;18.248;2022-08-21T05:00:15;18.35;;;15.15;;
38162;SDS011;23977;53.078;18.248;2022-08-21T05:02:44;18.63;;;14.65;;
38162;SDS011;23977;53.078;18.248;2022-08-21T05:05:12;21.35;;;15.43;;
38162;SDS011;23977;53.078;18.248;2022-08-21T05:07:38;20.02;;;16.55;;
38162;SDS011;23977;53.078;18.248;2022-08-21T05:10:05;22.40;;;16.38;;
38162;SDS011;23977;53.078;18.248;2022-08-21T05:12:33;21.73;;;15.68;;
38162;SDS011;23977;53.078;18.248;2022-08-21T05:14:59;22.30;;;16.23;;
38162;SDS011;23977;53.078;18.248;2022-08-21T05:17:25;22.40;;;16.40;;
38162;SDS011;23977;53.078;18.248;2022-08-21T05:19:51;20.23;;;16.33;;
38162;SDS011;23977;53.078;18.248;2022-08-21T05:22:19;19.50;;;15.65;;
38162;SDS011;23977;53.078;18.248;2022-08-21T05:24:45;19.65;;;16.08;;
38162;SDS011;23977;53.078;18.248;2022-08-21T05:27:11;21.52;;;15.55;;
38162;SDS011;23977;53.078;18.248;2022-08-21T05:29:37;23.60;;;17.30;;
38162;SDS011;23977;53.078;18.248;2022-08-21T05:32:10;21.20;;;17.00;;
38162;SDS011;23977;53.078;18.248;2022-08-21T05:34:36;23.67;;;18.58;;
38162;SDS011;23977;53.078;18.248;2022-08-21T05:37:02;22.75;;;17.90;;
38162;SDS011;23977;53.078;18.248;2022-08-21T05:39:29;22.50;;;17.88;;
38162;SDS011;23977;53.078;18.248;2022-08-21T05:41:55;25.55;;;19.95;;
38162;SDS011;23977;53.078;18.248;2022-08-21T05:44:20;25.80;;;18.65;;
38162;SDS011;23977;53.078;18.248;2022-08-21T05:46:47;27.00;;;21.98;;
38162;SDS011;23977;53.078;18.248;2022-08-21T05:49:13;31.13;;;23.13;;
38162;SDS011;23977;53.078;18.248;2022-08-21T05:51:39;30.38;;;21.77;;
38162;SDS011;23977;53.078;18.248;2022-08-21T05:54:06;24.58;;;19.42;;
38162;SDS011;23977;53.078;18.248;2022-08-21T05:56:31;24.65;;;19.75;;
38162;SDS011;23977;53.078;18.248;2022-08-21T05:58:58;29.58;;;21.42;;
38162;SDS011;23977;53.078;18.248;2022-08-21T06:01:24;32.70;;;23.70;;
38162;SDS011;23977;53.078;18.248;2022-08-21T06:03:50;28.73;;;21.50;;
38162;SDS011;23977;53.078;18.248;2022-08-21T06:06:15;24.48;;;18.88;;
38162;SDS011;23977;53.078;18.248;2022-08-21T06:08:42;27.80;;;19.95;;
38162;SDS011;23977;53.078;18.248;2022-08-21T06:11:08;27.77;;;21.17;;
38162;SDS011;23977;53.078;18.248;2022-08-21T06:13:34;29.25;;;21.90;;
38162;SDS011;23977;53.078;18.248;2022-08-21T06:16:05;28.50;;;20.88;;
38162;SDS011;23977;53.078;18.248;2022-08-21T06:18:31;26.70;;;22.17;;
38162;SDS011;23977;53.078;18.248;2022-08-21T06:20:57;27.65;;;22.30;;
38162;SDS011;23977;53.078;18.248;2022-08-21T06:23:23;30.58;;;22.08;;
38162;SDS011;23977;53.078;18.248;2022-08-21T06:25:49;26.35;;;21.38;;
38162;SDS011;23977;53.078;18.248;2022-08-21T06:28:15;26.10;;;19.58;;
38162;SDS011;23977;53.078;18.248;2022-08-21T06:30:41;23.30;;;19.23;;
38162;SDS011;23977;53.078;18.248;2022-08-21T06:33:06;24.33;;;19.55;;
38162;SDS011;23977;53.078;18.248;2022-08-21T06:35:33;21.95;;;18.17;;
38162;SDS011;23977;53.078;18.248;2022-08-21T06:37:59;21.95;;;18.17;;
38162;SDS011;23977;53.078;18.248;2022-08-21T06:40:26;20.73;;;16.42;;
38162;SDS011;23977;53.078;18.248;2022-08-21T06:42:52;18.60;;;14.73;;
38162;SDS011;23977;53.078;18.248;2022-08-21T06:45:18;17.73;;;15.20;;
38162;SDS011;23977;53.078;18.248;2022-08-21T06:47:43;19.52;;;14.93;;
38162;SDS011;23977;53.078;18.248;2022-08-21T06:50:09;21.38;;;16.10;;
38162;SDS011;23977;53.078;18.248;2022-08-21T06:52:36;22.35;;;16.38;;
38162;SDS011;23977;53.078;18.248;2022-08-21T06:55:02;19.92;;;16.85;;
38162;SDS011;23977;53.078;18.248;2022-08-21T06:57:29;20.88;;;16.88;;
38162;SDS011;23977;53.078;18.248;2022-08-21T06:59:57;19.15;;;15.65;;
38162;SDS011;23977;53.078;18.248;2022-08-21T07:02:22;17.65;;;15.07;;
38162;SDS011;23977;53.078;18.248;2022-08-21T07:04:48;19.80;;;15.93;;
38162;SDS011;23977;53.078;18.248;2022-08-21T07:07:14;21.15;;;17.25;;
38162;SDS011;23977;53.078;18.248;2022-08-21T07:09:40;19.73;;;17.60;;
38162;SDS011;23977;53.078;18.248;2022-08-21T07:12:05;21.38;;;17.70;;
38162;SDS011;23977;53.078;18.248;2022-08-21T07:14:32;25.55;;;18.25;;
38162;SDS011;23977;53.078;18.248;2022-08-21T07:16:58;21.42;;;17.38;;
38162;SDS011;23977;53.078;18.248;2022-08-21T07:19:23;18.48;;;16.08;;
38162;SDS011;23977;53.078;18.248;2022-08-21T07:21:57;16.15;;;14.02;;
38162;SDS011;23977;53.078;18.248;2022-08-21T07:24:23;16.17;;;13.57;;
38162;SDS011;23977;53.078;18.248;2022-08-21T07:26:49;18.65;;;14.48;;
38162;SDS011;23977;53.078;18.248;2022-08-21T07:29:15;14.70;;;13.15;;
38162;SDS011;23977;53.078;18.248;2022-08-21T07:31:41;16.48;;;13.70;;
38162;SDS011;23977;53.078;18.248;2022-08-21T07:34:07;12.35;;;11.05;;
38162;SDS011;23977;53.078;18.248;2022-08-21T07:36:33;11.27;;;8.95;;
38162;SDS011;23977;53.078;18.248;2022-08-21T07:38:59;9.45;;;7.88;;
38162;SDS011;23977;53.078;18.248;2022-08-21T07:41:27;9.40;;;8.40;;
38162;SDS011;23977;53.078;18.248;2022-08-21T07:43:56;10.38;;;8.10;;
38162;SDS011;23977;53.078;18.248;2022-08-21T07:46:23;10.30;;;8.20;;
38162;SDS011;23977;53.078;18.248;2022-08-21T07:48:48;8.95;;;8.00;;
38162;SDS011;23977;53.078;18.248;2022-08-21T07:51:16;10.30;;;8.70;;
38162;SDS011;23977;53.078;18.248;2022-08-21T07:53:42;10.70;;;8.68;;
38162;SDS011;23977;53.078;18.248;2022-08-21T07:56:08;11.63;;;9.18;;
38162;SDS011;23977;53.078;18.248;2022-08-21T07:58:36;9.48;;;8.48;;
38162;SDS011;23977;53.078;18.248;2022-08-21T08:01:02;9.90;;;8.90;;
38162;SDS011;23977;53.078;18.248;2022-08-21T08:03:27;13.43;;;9.40;;
38162;SDS011;23977;53.078;18.248;2022-08-21T08:05:54;12.63;;;8.85;;
38162;SDS011;23977;53.078;18.248;2022-08-21T08:08:20;11.93;;;10.15;;
38162;SDS011;23977;53.078;18.248;2022-08-21T08:10:46;10.73;;;9.63;;
38162;SDS011;23977;53.078;18.248;2022-08-21T08:13:12;10.57;;;9.48;;
38162;SDS011;23977;53.078;18.248;2022-08-21T08:15:38;13.35;;;9.45;;
38162;SDS011;23977;53.078;18.248;2022-08-21T08:18:04;11.52;;;9.23;;
38162;SDS011;23977;53.078;18.248;2022-08-21T08:20:30;10.38;;;8.60;;
38162;SDS011;23977;53.078;18.248;2022-08-21T08:22:55;11.35;;;9.23;;
38162;SDS011;23977;53.078;18.248;2022-08-21T08:25:22;11.75;;;8.57;;
38162;SDS011;23977;53.078;18.248;2022-08-21T08:27:51;9.93;;;8.68;;
38162;SDS011;23977;53.078;18.248;2022-08-21T08:30:17;13.90;;;8.27;;
38162;SDS011;23977;53.078;18.248;2022-08-21T08:32:44;10.30;;;8.05;;
38162;SDS011;23977;53.078;18.248;2022-08-21T08:35:10;11.90;;;7.43;;
38162;SDS011;23977;53.078;18.248;2022-08-21T08:37:42;9.85;;;8.10;;
38162;SDS011;23977;53.078;18.248;2022-08-21T08:40:10;12.93;;;9.75;;
38162;SDS011;23977;53.078;18.248;2022-08-21T08:42:37;10.77;;;8.73;;
38162;SDS011;23977;53.078;18.248;2022-08-21T08:45:04;9.55;;;7.32;;
38162;SDS011;23977;53.078;18.248;2022-08-21T08:47:36;10.25;;;7.50;;
38162;SDS011;23977;53.078;18.248;2022-08-21T08:50:06;9.23;;;7.07;;
38162;SDS011;23977;53.078;18.248;2022-08-21T08:52:35;10.05;;;7.43;;
38162;SDS011;23977;53.078;18.248;2022-08-21T08:55:08;8.43;;;6.50;;
38162;SDS011;23977;53.078;18.248;2022-08-21T08:57:35;10.07;;;7.07;;
38162;SDS011;23977;53.078;18.248;2022-08-21T09:00:04;10.52;;;7.15;;
38162;SDS011;23977;53.078;18.248;2022-08-21T09:02:31;8.98;;;7.25;;
38162;SDS011;23977;53.078;18.248;2022-08-21T09:04:59;10.48;;;7.65;;
38162;SDS011;23977;53.078;18.248;2022-08-21T09:07:33;7.97;;;6.63;;
38162;SDS011;23977;53.078;18.248;2022-08-21T09:15:09;8.18;;;6.78;;
38162;SDS011;23977;53.078;18.248;2022-08-21T09:28:25;9.43;;;7.00;;
38162;SDS011;23977;53.078;18.248;2022-08-21T09:30:54;8.65;;;7.43;;
38162;SDS011;23977;53.078;18.248;2022-08-21T09:33:21;10.07;;;8.05;;
38162;SDS011;23977;53.078;18.248;2022-08-21T09:35:52;9.65;;;7.60;;
38162;SDS011;23977;53.078;18.248;2022-08-21T09:38:29;11.27;;;8.00;;
38162;SDS011;23977;53.078;18.248;2022-08-21T09:40:59;10.73;;;8.23;;
38162;SDS011;23977;53.078;18.248;2022-08-21T09:43:25;8.15;;;7.28;;
38162;SDS011;23977;53.078;18.248;2022-08-21T09:46:06;8.63;;;7.22;;
38162;SDS011;23977;53.078;18.248;2022-08-21T09:48:38;7.25;;;6.25;;
38162;SDS011;23977;53.078;18.248;2022-08-21T09:51:05;6.70;;;5.57;;
38162;SDS011;23977;53.078;18.248;2022-08-21T09:53:32;9.27;;;6.55;;
38162;SDS011;23977;53.078;18.248;2022-08-21T09:55:59;8.27;;;7.38;;
38162;SDS011;23977;53.078;18.248;2022-08-21T09:58:45;7.57;;;6.25;;
38162;SDS011;23977;53.078;18.248;2022-08-21T10:01:13;7.38;;;5.40;;
38162;SDS011;23977;53.078;18.248;2022-08-21T10:03:39;9.30;;;6.15;;
38162;SDS011;23977;53.078;18.248;2022-08-21T10:06:05;6.93;;;5.70;;
38162;SDS011;23977;53.078;18.248;2022-08-21T10:08:34;6.28;;;5.00;;
38162;SDS011;23977;53.078;18.248;2022-08-21T10:11:11;8.68;;;5.70;;
38162;SDS011;23977;53.078;18.248;2022-08-21T10:13:47;6.68;;;5.60;;
38162;SDS011;23977;53.078;18.248;2022-08-21T10:24:29;6.30;;;5.65;;
38162;SDS011;23977;53.078;18.248;2022-08-21T10:29:29;6.75;;;5.70;;
38162;SDS011;23977;53.078;18.248;2022-08-21T10:32:01;7.05;;;5.45;;
38162;SDS011;23977;53.078;18.248;2022-08-21T10:37:26;8.02;;;5.63;;
38162;SDS011;23977;53.078;18.248;2022-08-21T10:40:02;7.13;;;5.72;;
38162;SDS011;23977;53.078;18.248;2022-08-21T10:48:05;7.40;;;5.63;;
38162;SDS011;23977;53.078;18.248;2022-08-21T10:58:12;8.40;;;6.03;;
38162;SDS011;23977;53.078;18.248;2022-08-21T11:00:49;7.00;;;6.10;;
38162;SDS011;23977;53.078;18.248;2022-08-21T11:03:17;8.60;;;5.85;;
38162;SDS011;23977;53.078;18.248;2022-08-21T11:05:52;6.03;;;5.43;;
38162;SDS011;23977;53.078;18.248;2022-08-21T11:08:23;7.65;;;5.80;;
38162;SDS011;23977;53.078;18.248;2022-08-21T11:10:50;8.60;;;6.28;;
38162;SDS011;23977;53.078;18.248;2022-08-21T11:13:19;6.32;;;5.60;;
38162;SDS011;23977;53.078;18.248;2022-08-21T11:15:56;7.75;;;5.80;;
38162;SDS011;23977;53.078;18.248;2022-08-21T11:20:54;7.25;;;5.78;;
38162;SDS011;23977;53.078;18.248;2022-08-21T11:23:23;7.28;;;5.45;;
38162;SDS011;23977;53.078;18.248;2022-08-21T11:25:57;7.65;;;5.60;;
38162;SDS011;23977;53.078;18.248;2022-08-21T11:28:26;6.88;;;5.05;;
38162;SDS011;23977;53.078;18.248;2022-08-21T11:31:13;6.90;;;5.55;;
38162;SDS011;23977;53.078;18.248;2022-08-21T11:36:29;6.68;;;4.72;;
38162;SDS011;23977;53.078;18.248;2022-08-21T11:41:37;7.05;;;4.90;;
38162;SDS011;23977;53.078;18.248;2022-08-21T11:44:10;6.55;;;4.70;;
38162;SDS011;23977;53.078;18.248;2022-08-21T11:49:33;6.40;;;4.60;;
38162;SDS011;23977;53.078;18.248;2022-08-21T11:54:35;5.70;;;4.47;;
38162;SDS011;23977;53.078;18.248;2022-08-21T11:57:04;6.90;;;4.60;;
38162;SDS011;23977;53.078;18.248;2022-08-21T12:02:43;5.10;;;4.03;;
38162;SDS011;23977;53.078;18.248;2022-08-21T12:05:12;5.25;;;4.20;;
38162;SDS011;23977;53.078;18.248;2022-08-21T12:07:47;5.55;;;4.13;;
38162;SDS011;23977;53.078;18.248;2022-08-21T12:10:15;6.07;;;4.10;;
38162;SDS011;23977;53.078;18.248;2022-08-21T12:12:42;5.32;;;3.70;;
38162;SDS011;23977;53.078;18.248;2022-08-21T12:18:03;4.78;;;3.33;;
38162;SDS011;23977;53.078;18.248;2022-08-21T12:28:23;4.07;;;3.05;;
38162;SDS011;23977;53.078;18.248;2022-08-21T12:30:50;4.13;;;3.08;;
38162;SDS011;23977;53.078;18.248;2022-08-21T12:35:45;5.22;;;2.90;;
38162;SDS011;23977;53.078;18.248;2022-08-21T12:38:22;4.05;;;2.80;;
38162;SDS011;23977;53.078;18.248;2022-08-21T12:40:54;5.60;;;2.90;;
38162;SDS011;23977;53.078;18.248;2022-08-21T12:43:33;4.38;;;2.90;;
38162;SDS011;23977;53.078;18.248;2022-08-21T12:46:00;3.70;;;2.60;;
38162;SDS011;23977;53.078;18.248;2022-08-21T12:51:14;4.03;;;2.75;;
38162;SDS011;23977;53.078;18.248;2022-08-21T12:56:10;4.03;;;2.47;;
38162;SDS011;23977;53.078;18.248;2022-08-21T12:58:39;4.53;;;2.53;;
38162;SDS011;23977;53.078;18.248;2022-08-21T13:01:11;4.50;;;2.65;;
38162;SDS011;23977;53.078;18.248;2022-08-21T13:03:38;4.65;;;2.85;;
38162;SDS011;23977;53.078;18.248;2022-08-21T13:06:05;4.13;;;2.45;;
38162;SDS011;23977;53.078;18.248;2022-08-21T13:08:33;5.32;;;2.60;;
38162;SDS011;23977;53.078;18.248;2022-08-21T13:11:02;4.93;;;2.70;;
38162;SDS011;23977;53.078;18.248;2022-08-21T13:13:29;3.38;;;2.22;;
38162;SDS011;23977;53.078;18.248;2022-08-21T13:15:56;3.70;;;2.33;;
38162;SDS011;23977;53.078;18.248;2022-08-21T13:18:24;3.42;;;2.05;;
38162;SDS011;23977;53.078;18.248;2022-08-21T13:20:50;3.10;;;2.00;;
38162;SDS011;23977;53.078;18.248;2022-08-21T13:23:25;4.28;;;2.20;;
38162;SDS011;23977;53.078;18.248;2022-08-21T13:25:52;3.75;;;2.10;;
38162;SDS011;23977;53.078;18.248;2022-08-21T13:30:45;3.22;;;1.90;;
38162;SDS011;23977;53.078;18.248;2022-08-21T13:33:12;3.75;;;2.20;;
38162;SDS011;23977;53.078;18.248;2022-08-21T13:35:49;3.47;;;2.22;;
38162;SDS011;23977;53.078;18.248;2022-08-21T13:38:17;5.40;;;3.10;;
38162;SDS011;23977;53.078;18.248;2022-08-21T13:40:46;3.92;;;2.30;;
38162;SDS011;23977;53.078;18.248;2022-08-21T13:43:17;3.25;;;2.20;;
38162;SDS011;23977;53.078;18.248;2022-08-21T13:45:46;5.68;;;2.60;;
38162;SDS011;23977;53.078;18.248;2022-08-21T13:48:12;4.10;;;2.30;;
38162;SDS011;23977;53.078;18.248;2022-08-21T13:50:39;4.00;;;2.35;;
38162;SDS011;23977;53.078;18.248;2022-08-21T13:53:07;3.78;;;2.20;;
38162;SDS011;23977;53.078;18.248;2022-08-21T13:55:43;3.00;;;2.05;;
38162;SDS011;23977;53.078;18.248;2022-08-21T13:58:10;4.05;;;2.00;;
38162;SDS011;23977;53.078;18.248;2022-08-21T14:00:44;3.28;;;2.10;;
38162;SDS011;23977;53.078;18.248;2022-08-21T14:03:10;3.83;;;2.13;;
38162;SDS011;23977;53.078;18.248;2022-08-21T14:05:37;4.38;;;1.92;;
38162;SDS011;23977;53.078;18.248;2022-08-21T14:10:30;4.03;;;2.08;;
38162;SDS011;23977;53.078;18.248;2022-08-21T14:13:03;4.85;;;1.88;;
38162;SDS011;23977;53.078;18.248;2022-08-21T14:15:31;3.10;;;1.90;;
38162;SDS011;23977;53.078;18.248;2022-08-21T14:18:14;2.60;;;1.73;;
38162;SDS011;23977;53.078;18.248;2022-08-21T14:20:41;3.50;;;2.10;;
38162;SDS011;23977;53.078;18.248;2022-08-21T14:23:07;2.88;;;2.00;;
38162;SDS011;23977;53.078;18.248;2022-08-21T14:25:37;3.90;;;1.70;;
38162;SDS011;23977;53.078;18.248;2022-08-21T14:28:23;6.50;;;2.20;;
38162;SDS011;23977;53.078;18.248;2022-08-21T14:30:51;4.30;;;1.92;;
38162;SDS011;23977;53.078;18.248;2022-08-21T14:33:31;3.10;;;1.67;;
38162;SDS011;23977;53.078;18.248;2022-08-21T14:35:58;2.85;;;1.90;;
38162;SDS011;23977;53.078;18.248;2022-08-21T14:38:27;2.63;;;1.55;;
38162;SDS011;23977;53.078;18.248;2022-08-21T14:40:56;3.40;;;1.80;;
38162;SDS011;23977;53.078;18.248;2022-08-21T14:43:23;3.58;;;1.73;;
38162;SDS011;23977;53.078;18.248;2022-08-21T14:45:51;3.83;;;1.70;;
38162;SDS011;23977;53.078;18.248;2022-08-21T14:48:16;3.80;;;1.98;;
38162;SDS011;23977;53.078;18.248;2022-08-21T14:50:42;3.17;;;2.13;;
38162;SDS011;23977;53.078;18.248;2022-08-21T14:53:08;3.60;;;1.90;;
38162;SDS011;23977;53.078;18.248;2022-08-21T14:55:34;3.13;;;1.90;;
38162;SDS011;23977;53.078;18.248;2022-08-21T14:58:19;3.78;;;1.90;;
38162;SDS011;23977;53.078;18.248;2022-08-21T15:00:45;3.95;;;1.65;;
38162;SDS011;23977;53.078;18.248;2022-08-21T15:03:11;3.28;;;1.88;;
38162;SDS011;23977;53.078;18.248;2022-08-21T15:05:37;4.13;;;1.98;;
38162;SDS011;23977;53.078;18.248;2022-08-21T15:08:03;4.70;;;2.13;;
38162;SDS011;23977;53.078;18.248;2022-08-21T15:10:29;2.97;;;1.70;;
38162;SDS011;23977;53.078;18.248;2022-08-21T15:12:56;2.83;;;1.80;;
38162;SDS011;23977;53.078;18.248;2022-08-21T15:15:21;4.00;;;1.85;;
38162;SDS011;23977;53.078;18.248;2022-08-21T15:17:47;3.78;;;1.73;;
38162;SDS011;23977;53.078;18.248;2022-08-21T15:20:13;4.70;;;2.00;;
38162;SDS011;23977;53.078;18.248;2022-08-21T15:22:39;3.20;;;1.98;;
38162;SDS011;23977;53.078;18.248;2022-08-21T15:25:05;4.28;;;2.22;;
38162;SDS011;23977;53.078;18.248;2022-08-21T15:27:31;2.78;;;1.90;;
38162;SDS011;23977;53.078;18.248;2022-08-21T15:29:57;2.78;;;1.63;;
38162;SDS011;23977;53.078;18.248;2022-08-21T15:32:24;3.20;;;2.00;;
38162;SDS011;23977;53.078;18.248;2022-08-21T15:34:51;3.88;;;2.20;;
38162;SDS011;23977;53.078;18.248;2022-08-21T15:37:18;3.08;;;1.98;;
38162;SDS011;23977;53.078;18.248;2022-08-21T15:39:45;3.25;;;1.73;;
38162;SDS011;23977;53.078;18.248;2022-08-21T15:42:11;4.05;;;2.40;;
38162;SDS011;23977;53.078;18.248;2022-08-21T15:44:39;3.47;;;2.00;;
38162;SDS011;23977;53.078;18.248;2022-08-21T15:47:05;2.88;;;1.92;;
38162;SDS011;23977;53.078;18.248;2022-08-21T15:49:31;3.03;;;2.08;;
38162;SDS011;23977;53.078;18.248;2022-08-21T15:51:57;3.40;;;1.70;;
38162;SDS011;23977;53.078;18.248;2022-08-21T15:54:23;3.05;;;1.88;;
38162;SDS011;23977;53.078;18.248;2022-08-21T15:56:49;3.20;;;2.20;;